sensor_id;sensor_type;location;lat;lon;timestamp;temperature;humidity
68943;DHT22;60852;52.190;4.422;2022-08-19T00:00:44;19.89;78.55
68943;DHT22;60852;52.190;4.422;2022-08-19T00:03:10;19.82;78.92
68943;DHT22;60852;52.190;4.422;2022-08-19T00:05:36;19.81;78.99
68943;DHT22;60852;52.190;4.422;2022-08-19T00:08:02;19.82;80.05
68943;DHT22;60852;52.190;4.422;2022-08-19T00:10:28;19.81;79.22
68943;DHT22;60852;52.190;4.422;2022-08-19T00:12:53;19.79;78.71
68943;DHT22;60852;52.190;4.422;2022-08-19T00:15:20;19.81;78.66
68943;DHT22;60852;52.190;4.422;2022-08-19T00:17:48;19.78;78.69
68943;DHT22;60852;52.190;4.422;2022-08-19T00:20:17;19.75;78.75
68943;DHT22;60852;52.190;4.422;2022-08-19T00:22:44;19.75;78.82
68943;DHT22;60852;52.190;4.422;2022-08-19T00:25:11;19.73;78.89
68943;DHT22;60852;52.190;4.422;2022-08-19T00:27:37;19.68;79.04
68943;DHT22;60852;52.190;4.422;2022-08-19T00:30:05;19.70;79.07
68943;DHT22;60852;52.190;4.422;2022-08-19T00:32:31;19.67;79.12
68943;DHT22;60852;52.190;4.422;2022-08-19T00:34:56;19.68;79.12
68943;DHT22;60852;52.190;4.422;2022-08-19T00:37:23;19.63;79.14
68943;DHT22;60852;52.190;4.422;2022-08-19T00:39:50;19.57;79.21
68943;DHT22;60852;52.190;4.422;2022-08-19T00:42:18;19.45;79.60
68943;DHT22;60852;52.190;4.422;2022-08-19T00:44:44;19.40;79.72
68943;DHT22;60852;52.190;4.422;2022-08-19T00:47:10;19.43;79.70
68943;DHT22;60852;52.190;4.422;2022-08-19T00:49:41;19.47;79.31
68943;DHT22;60852;52.190;4.422;2022-08-19T00:52:23;19.49;79.27
68943;DHT22;60852;52.190;4.422;2022-08-19T00:54:51;19.47;79.17
68943;DHT22;60852;52.190;4.422;2022-08-19T00:57:28;19.47;79.31
68943;DHT22;60852;52.190;4.422;2022-08-19T00:59:58;19.47;79.20
68943;DHT22;60852;52.190;4.422;2022-08-19T01:02:26;19.40;79.33
68943;DHT22;60852;52.190;4.422;2022-08-19T01:04:52;19.30;79.86
68943;DHT22;60852;52.190;4.422;2022-08-19T01:07:18;19.31;79.94
68943;DHT22;60852;52.190;4.422;2022-08-19T01:09:43;19.37;79.91
68943;DHT22;60852;52.190;4.422;2022-08-19T01:12:09;19.45;79.51
68943;DHT22;60852;52.190;4.422;2022-08-19T01:14:39;19.47;79.25
68943;DHT22;60852;52.190;4.422;2022-08-19T01:17:07;19.50;79.10
68943;DHT22;60852;52.190;4.422;2022-08-19T01:19:37;19.54;78.93
68943;DHT22;60852;52.190;4.422;2022-08-19T01:22:30;19.61;78.63
68943;DHT22;60852;52.190;4.422;2022-08-19T01:24:57;19.63;78.70
68943;DHT22;60852;52.190;4.422;2022-08-19T01:27:22;19.68;78.84
68943;DHT22;60852;52.190;4.422;2022-08-19T01:29:48;19.68;79.00
68943;DHT22;60852;52.190;4.422;2022-08-19T01:32:16;19.70;79.09
68943;DHT22;60852;52.190;4.422;2022-08-19T01:34:42;19.70;79.26
68943;DHT22;60852;52.190;4.422;2022-08-19T01:37:14;19.77;79.22
68943;DHT22;60852;52.190;4.422;2022-08-19T01:39:40;19.78;79.04
68943;DHT22;60852;52.190;4.422;2022-08-19T01:42:07;19.79;78.92
68943;DHT22;60852;52.190;4.422;2022-08-19T01:44:38;19.71;78.75
68943;DHT22;60852;52.190;4.422;2022-08-19T01:47:04;19.70;78.67
68943;DHT22;60852;52.190;4.422;2022-08-19T01:49:30;19.70;78.56
68943;DHT22;60852;52.190;4.422;2022-08-19T01:51:55;19.70;78.59
68943;DHT22;60852;52.190;4.422;2022-08-19T01:54:23;19.67;78.80
68943;DHT22;60852;52.190;4.422;2022-08-19T01:56:51;19.67;78.87
68943;DHT22;60852;52.190;4.422;2022-08-19T01:59:21;19.58;79.05
68943;DHT22;60852;52.190;4.422;2022-08-19T02:01:48;19.57;79.25
68943;DHT22;60852;52.190;4.422;2022-08-19T02:04:13;19.57;79.49
68943;DHT22;60852;52.190;4.422;2022-08-19T02:06:39;19.53;79.53
68943;DHT22;60852;52.190;4.422;2022-08-19T02:09:06;19.53;79.78
68943;DHT22;60852;52.190;4.422;2022-08-19T02:11:34;19.50;79.88
68943;DHT22;60852;52.190;4.422;2022-08-19T02:14:05;19.46;80.07
68943;DHT22;60852;52.190;4.422;2022-08-19T02:16:31;19.41;79.98
68943;DHT22;60852;52.190;4.422;2022-08-19T02:18:58;19.36;80.31
68943;DHT22;60852;52.190;4.422;2022-08-19T02:21:26;19.34;80.52
68943;DHT22;60852;52.190;4.422;2022-08-19T02:23:51;19.33;80.49
68943;DHT22;60852;52.190;4.422;2022-08-19T02:26:17;19.33;80.63
68943;DHT22;60852;52.190;4.422;2022-08-19T02:28:44;19.30;80.82
68943;DHT22;60852;52.190;4.422;2022-08-19T02:31:13;19.29;80.86
68943;DHT22;60852;52.190;4.422;2022-08-19T02:33:39;19.23;81.08
68943;DHT22;60852;52.190;4.422;2022-08-19T02:36:07;19.18;81.43
68943;DHT22;60852;52.190;4.422;2022-08-19T02:38:33;19.16;81.47
68943;DHT22;60852;52.190;4.422;2022-08-19T02:41:05;19.20;81.42
68943;DHT22;60852;52.190;4.422;2022-08-19T02:43:33;19.22;81.53
68943;DHT22;60852;52.190;4.422;2022-08-19T02:46:11;19.22;81.44
68943;DHT22;60852;52.190;4.422;2022-08-19T02:48:37;19.19;81.55
68943;DHT22;60852;52.190;4.422;2022-08-19T02:51:02;19.16;81.77
68943;DHT22;60852;52.190;4.422;2022-08-19T02:53:28;19.18;81.85
68943;DHT22;60852;52.190;4.422;2022-08-19T02:55:55;19.13;81.90
68943;DHT22;60852;52.190;4.422;2022-08-19T02:58:22;19.16;81.93
68943;DHT22;60852;52.190;4.422;2022-08-19T03:00:54;19.20;81.93
68943;DHT22;60852;52.190;4.422;2022-08-19T03:03:21;19.22;81.73
68943;DHT22;60852;52.190;4.422;2022-08-19T03:05:47;19.20;81.91
68943;DHT22;60852;52.190;4.422;2022-08-19T03:08:13;19.16;81.70
68943;DHT22;60852;52.190;4.422;2022-08-19T03:10:44;19.15;81.72
68943;DHT22;60852;52.190;4.422;2022-08-19T03:13:14;19.15;81.92
68943;DHT22;60852;52.190;4.422;2022-08-19T03:15:45;19.13;81.88
68943;DHT22;60852;52.190;4.422;2022-08-19T03:18:12;19.08;82.31
68943;DHT22;60852;52.190;4.422;2022-08-19T03:20:47;18.99;82.67
68943;DHT22;60852;52.190;4.422;2022-08-19T03:23:14;18.98;82.72
68943;DHT22;60852;52.190;4.422;2022-08-19T03:25:43;18.94;82.78
68943;DHT22;60852;52.190;4.422;2022-08-19T03:28:14;18.92;82.58
68943;DHT22;60852;52.190;4.422;2022-08-19T03:30:41;18.98;82.56
68943;DHT22;60852;52.190;4.422;2022-08-19T03:33:08;18.95;82.69
68943;DHT22;60852;52.190;4.422;2022-08-19T03:35:34;19.00;82.43
68943;DHT22;60852;52.190;4.422;2022-08-19T03:38:03;18.99;82.49
68943;DHT22;60852;52.190;4.422;2022-08-19T03:40:28;19.00;82.67
68943;DHT22;60852;52.190;4.422;2022-08-19T03:42:56;18.96;82.79
68943;DHT22;60852;52.190;4.422;2022-08-19T03:45:22;18.98;82.82
68943;DHT22;60852;52.190;4.422;2022-08-19T03:47:48;18.98;82.85
68943;DHT22;60852;52.190;4.422;2022-08-19T03:50:13;19.00;82.97
68943;DHT22;60852;52.190;4.422;2022-08-19T03:52:39;18.96;83.53
68943;DHT22;60852;52.190;4.422;2022-08-19T03:55:05;18.98;83.43
68943;DHT22;60852;52.190;4.422;2022-08-19T03:57:31;19.00;83.19
68943;DHT22;60852;52.190;4.422;2022-08-19T03:59:57;18.91;84.05
68943;DHT22;60852;52.190;4.422;2022-08-19T04:02:23;18.82;84.70
68943;DHT22;60852;52.190;4.422;2022-08-19T04:04:48;18.85;85.02
68943;DHT22;60852;52.190;4.422;2022-08-19T04:07:14;18.92;85.12
68943;DHT22;60852;52.190;4.422;2022-08-19T04:09:41;18.94;84.96
68943;DHT22;60852;52.190;4.422;2022-08-19T04:12:07;18.91;84.91
68943;DHT22;60852;52.190;4.422;2022-08-19T04:14:33;18.82;85.43
68943;DHT22;60852;52.190;4.422;2022-08-19T04:17:00;18.79;85.64
68943;DHT22;60852;52.190;4.422;2022-08-19T04:19:28;18.88;85.40
68943;DHT22;60852;52.190;4.422;2022-08-19T04:21:54;18.82;85.80
68943;DHT22;60852;52.190;4.422;2022-08-19T04:24:21;18.85;85.96
68943;DHT22;60852;52.190;4.422;2022-08-19T04:26:47;18.91;85.77
68943;DHT22;60852;52.190;4.422;2022-08-19T04:29:16;18.87;86.05
68943;DHT22;60852;52.190;4.422;2022-08-19T04:31:43;18.79;86.21
68943;DHT22;60852;52.190;4.422;2022-08-19T04:34:11;18.82;86.20
68943;DHT22;60852;52.190;4.422;2022-08-19T04:36:40;18.92;86.05
68943;DHT22;60852;52.190;4.422;2022-08-19T04:39:10;18.88;86.20
68943;DHT22;60852;52.190;4.422;2022-08-19T04:41:36;18.89;86.29
68943;DHT22;60852;52.190;4.422;2022-08-19T04:44:21;18.87;86.45
68943;DHT22;60852;52.190;4.422;2022-08-19T04:46:48;18.85;86.52
68943;DHT22;60852;52.190;4.422;2022-08-19T04:49:16;18.91;86.39
68943;DHT22;60852;52.190;4.422;2022-08-19T04:51:45;18.89;86.47
68943;DHT22;60852;52.190;4.422;2022-08-19T04:54:11;18.98;86.31
68943;DHT22;60852;52.190;4.422;2022-08-19T04:56:39;19.05;85.93
68943;DHT22;60852;52.190;4.422;2022-08-19T04:59:05;19.15;85.57
68943;DHT22;60852;52.190;4.422;2022-08-19T05:01:33;19.19;85.38
68943;DHT22;60852;52.190;4.422;2022-08-19T05:04:00;19.34;85.27
68943;DHT22;60852;52.190;4.422;2022-08-19T05:06:27;19.45;84.93
68943;DHT22;60852;52.190;4.422;2022-08-19T05:08:54;19.57;84.33
68943;DHT22;60852;52.190;4.422;2022-08-19T05:11:25;19.63;83.89
68943;DHT22;60852;52.190;4.422;2022-08-19T05:13:52;19.77;83.57
68943;DHT22;60852;52.190;4.422;2022-08-19T05:16:20;19.85;83.29
68943;DHT22;60852;52.190;4.422;2022-08-19T05:18:47;19.94;83.30
68943;DHT22;60852;52.190;4.422;2022-08-19T05:21:32;19.91;83.17
68943;DHT22;60852;52.190;4.422;2022-08-19T05:24:17;19.88;83.16
68943;DHT22;60852;52.190;4.422;2022-08-19T05:26:46;19.94;83.07
68943;DHT22;60852;52.190;4.422;2022-08-19T05:29:14;20.05;82.81
68943;DHT22;60852;52.190;4.422;2022-08-19T05:31:40;20.26;82.51
68943;DHT22;60852;52.190;4.422;2022-08-19T05:34:06;20.29;82.44
68943;DHT22;60852;52.190;4.422;2022-08-19T05:36:39;20.17;82.78
68943;DHT22;60852;52.190;4.422;2022-08-19T05:39:11;20.19;82.75
68943;DHT22;60852;52.190;4.422;2022-08-19T05:41:42;20.35;82.62
68943;DHT22;60852;52.190;4.422;2022-08-19T05:44:08;20.46;82.20
68943;DHT22;60852;52.190;4.422;2022-08-19T05:46:36;20.52;82.09
68943;DHT22;60852;52.190;4.422;2022-08-19T05:49:07;20.63;81.80
68943;DHT22;60852;52.190;4.422;2022-08-19T05:51:35;20.63;81.81
68943;DHT22;60852;52.190;4.422;2022-08-19T05:54:03;20.62;81.96
68943;DHT22;60852;52.190;4.422;2022-08-19T05:56:29;20.57;82.28
68943;DHT22;60852;52.190;4.422;2022-08-19T05:58:57;20.57;82.54
68943;DHT22;60852;52.190;4.422;2022-08-19T06:01:24;20.59;82.50
68943;DHT22;60852;52.190;4.422;2022-08-19T06:03:50;20.63;82.62
68943;DHT22;60852;52.190;4.422;2022-08-19T06:06:17;20.65;82.72
68943;DHT22;60852;52.190;4.422;2022-08-19T06:08:44;20.70;82.70
68943;DHT22;60852;52.190;4.422;2022-08-19T06:14:03;20.66;82.86
68943;DHT22;60852;52.190;4.422;2022-08-19T06:16:29;20.67;83.09
68943;DHT22;60852;52.190;4.422;2022-08-19T06:18:59;20.70;83.07
68943;DHT22;60852;52.190;4.422;2022-08-19T06:21:27;20.75;83.13
68943;DHT22;60852;52.190;4.422;2022-08-19T06:23:54;20.70;83.21
68943;DHT22;60852;52.190;4.422;2022-08-19T06:26:20;20.66;83.53
68943;DHT22;60852;52.190;4.422;2022-08-19T06:28:47;20.55;84.12
68943;DHT22;60852;52.190;4.422;2022-08-19T06:31:19;20.67;84.15
68943;DHT22;60852;52.190;4.422;2022-08-19T06:33:47;20.77;83.91
68943;DHT22;60852;52.190;4.422;2022-08-19T06:36:21;20.86;83.88
68943;DHT22;60852;52.190;4.422;2022-08-19T06:38:47;20.98;83.75
68943;DHT22;60852;52.190;4.422;2022-08-19T06:41:13;21.00;83.50
68943;DHT22;60852;52.190;4.422;2022-08-19T06:43:38;21.10;83.65
68943;DHT22;60852;52.190;4.422;2022-08-19T06:46:04;21.18;83.47
68943;DHT22;60852;52.190;4.422;2022-08-19T06:48:35;21.41;83.18
68943;DHT22;60852;52.190;4.422;2022-08-19T06:51:01;21.48;82.47
68943;DHT22;60852;52.190;4.422;2022-08-19T06:53:28;21.54;82.10
68943;DHT22;60852;52.190;4.422;2022-08-19T06:55:54;21.71;81.88
68943;DHT22;60852;52.190;4.422;2022-08-19T06:58:25;21.79;81.73
68943;DHT22;60852;52.190;4.422;2022-08-19T07:00:50;21.78;81.78
68943;DHT22;60852;52.190;4.422;2022-08-19T07:03:16;21.82;81.78
68943;DHT22;60852;52.190;4.422;2022-08-19T07:05:43;22.04;81.75
68943;DHT22;60852;52.190;4.422;2022-08-19T07:08:09;22.14;81.11
68943;DHT22;60852;52.190;4.422;2022-08-19T07:10:35;22.27;80.86
68943;DHT22;60852;52.190;4.422;2022-08-19T07:13:02;22.29;80.84
68943;DHT22;60852;52.190;4.422;2022-08-19T07:15:29;22.41;80.54
68943;DHT22;60852;52.190;4.422;2022-08-19T07:17:56;22.40;80.21
68943;DHT22;60852;52.190;4.422;2022-08-19T07:20:21;22.47;80.20
68943;DHT22;60852;52.190;4.422;2022-08-19T07:22:47;22.30;80.20
68943;DHT22;60852;52.190;4.422;2022-08-19T07:25:13;22.32;79.26
68943;DHT22;60852;52.190;4.422;2022-08-19T07:27:38;22.43;78.87
68943;DHT22;60852;52.190;4.422;2022-08-19T07:30:05;22.40;78.80
68943;DHT22;60852;52.190;4.422;2022-08-19T07:32:30;22.44;78.76
68943;DHT22;60852;52.190;4.422;2022-08-19T07:34:56;22.48;77.97
68943;DHT22;60852;52.190;4.422;2022-08-19T07:37:22;22.55;78.06
68943;DHT22;60852;52.190;4.422;2022-08-19T07:39:47;22.71;78.07
68943;DHT22;60852;52.190;4.422;2022-08-19T07:42:13;22.61;78.05
68943;DHT22;60852;52.190;4.422;2022-08-19T07:44:40;22.68;77.83
68943;DHT22;60852;52.190;4.422;2022-08-19T07:47:05;22.71;77.59
68943;DHT22;60852;52.190;4.422;2022-08-19T07:49:33;22.76;76.95
68943;DHT22;60852;52.190;4.422;2022-08-19T07:52:03;22.88;76.99
68943;DHT22;60852;52.190;4.422;2022-08-19T07:54:32;22.87;76.13
68943;DHT22;60852;52.190;4.422;2022-08-19T07:57:00;22.74;76.73
68943;DHT22;60852;52.190;4.422;2022-08-19T07:59:27;22.69;76.94
68943;DHT22;60852;52.190;4.422;2022-08-19T08:01:55;22.72;76.58
68943;DHT22;60852;52.190;4.422;2022-08-19T08:04:20;22.81;77.10
68943;DHT22;60852;52.190;4.422;2022-08-19T08:07:06;22.95;76.66
68943;DHT22;60852;52.190;4.422;2022-08-19T08:09:52;22.95;76.27
68943;DHT22;60852;52.190;4.422;2022-08-19T08:12:27;23.06;76.39
68943;DHT22;60852;52.190;4.422;2022-08-19T08:14:56;23.09;76.01
68943;DHT22;60852;52.190;4.422;2022-08-19T08:17:26;23.03;76.72
68943;DHT22;60852;52.190;4.422;2022-08-19T08:19:53;23.11;76.08
68943;DHT22;60852;52.190;4.422;2022-08-19T08:22:21;23.19;75.84
68943;DHT22;60852;52.190;4.422;2022-08-19T08:25:13;23.29;75.59
68943;DHT22;60852;52.190;4.422;2022-08-19T08:27:40;23.26;76.34
68943;DHT22;60852;52.190;4.422;2022-08-19T08:30:09;23.33;75.19
68943;DHT22;60852;52.190;4.422;2022-08-19T08:32:39;23.30;74.89
68943;DHT22;60852;52.190;4.422;2022-08-19T08:35:06;23.15;75.54
68943;DHT22;60852;52.190;4.422;2022-08-19T08:37:32;23.20;76.06
68943;DHT22;60852;52.190;4.422;2022-08-19T08:39:58;23.23;75.29
68943;DHT22;60852;52.190;4.422;2022-08-19T08:42:32;23.30;75.49
68943;DHT22;60852;52.190;4.422;2022-08-19T08:45:10;23.40;75.27
68943;DHT22;60852;52.190;4.422;2022-08-19T08:47:43;23.49;74.95
68943;DHT22;60852;52.190;4.422;2022-08-19T08:52:50;23.50;73.98
68943;DHT22;60852;52.190;4.422;2022-08-19T08:55:20;23.64;73.73
68943;DHT22;60852;52.190;4.422;2022-08-19T09:02:52;23.53;74.18
68943;DHT22;60852;52.190;4.422;2022-08-19T09:05:20;23.45;74.79
68943;DHT22;60852;52.190;4.422;2022-08-19T09:10:43;23.59;73.87
68943;DHT22;60852;52.190;4.422;2022-08-19T09:15:52;23.73;72.11
68943;DHT22;60852;52.190;4.422;2022-08-19T09:18:19;23.70;73.09
68943;DHT22;60852;52.190;4.422;2022-08-19T09:20:45;23.60;73.93
68943;DHT22;60852;52.190;4.422;2022-08-19T09:23:12;23.45;74.46
68943;DHT22;60852;52.190;4.422;2022-08-19T09:25:38;23.45;74.76
68943;DHT22;60852;52.190;4.422;2022-08-19T09:28:06;23.49;74.53
68943;DHT22;60852;52.190;4.422;2022-08-19T09:30:34;23.69;74.40
68943;DHT22;60852;52.190;4.422;2022-08-19T09:33:03;23.69;73.96
68943;DHT22;60852;52.190;4.422;2022-08-19T09:35:29;23.80;74.20
68943;DHT22;60852;52.190;4.422;2022-08-19T09:37:56;23.90;73.01
68943;DHT22;60852;52.190;4.422;2022-08-19T09:40:22;23.97;73.03
68943;DHT22;60852;52.190;4.422;2022-08-19T09:42:48;24.00;72.63
68943;DHT22;60852;52.190;4.422;2022-08-19T09:45:16;24.10;72.53
68943;DHT22;60852;52.190;4.422;2022-08-19T09:47:42;23.93;72.76
68943;DHT22;60852;52.190;4.422;2022-08-19T09:50:10;23.77;72.74
68943;DHT22;60852;52.190;4.422;2022-08-19T09:52:37;23.85;73.06
68943;DHT22;60852;52.190;4.422;2022-08-19T09:55:08;23.81;72.83
68943;DHT22;60852;52.190;4.422;2022-08-19T09:57:34;23.91;73.41
68943;DHT22;60852;52.190;4.422;2022-08-19T10:00:00;24.11;72.29
68943;DHT22;60852;52.190;4.422;2022-08-19T10:02:25;24.12;71.02
68943;DHT22;60852;52.190;4.422;2022-08-19T10:04:51;24.12;71.83
68943;DHT22;60852;52.190;4.422;2022-08-19T10:07:37;24.29;71.38
68943;DHT22;60852;52.190;4.422;2022-08-19T10:10:07;24.48;71.18
68943;DHT22;60852;52.190;4.422;2022-08-19T10:12:33;24.47;69.76
68943;DHT22;60852;52.190;4.422;2022-08-19T10:14:59;24.58;70.95
68943;DHT22;60852;52.190;4.422;2022-08-19T10:17:25;24.52;70.88
68943;DHT22;60852;52.190;4.422;2022-08-19T10:19:51;24.69;69.72
68943;DHT22;60852;52.190;4.422;2022-08-19T10:22:18;24.83;68.65
68943;DHT22;60852;52.190;4.422;2022-08-19T10:24:46;24.82;69.08
68943;DHT22;60852;52.190;4.422;2022-08-19T10:27:12;24.93;69.15
68943;DHT22;60852;52.190;4.422;2022-08-19T10:29:40;24.76;69.28
68943;DHT22;60852;52.190;4.422;2022-08-19T10:32:07;24.76;69.63
68943;DHT22;60852;52.190;4.422;2022-08-19T10:34:35;24.77;69.22
68943;DHT22;60852;52.190;4.422;2022-08-19T10:37:02;24.76;69.61
68943;DHT22;60852;52.190;4.422;2022-08-19T10:39:35;24.55;70.61
68943;DHT22;60852;52.190;4.422;2022-08-19T10:42:06;24.28;70.73
68943;DHT22;60852;52.190;4.422;2022-08-19T10:44:33;24.25;70.68
68943;DHT22;60852;52.190;4.422;2022-08-19T10:47:02;24.21;71.31
68943;DHT22;60852;52.190;4.422;2022-08-19T10:49:28;24.26;71.56
68943;DHT22;60852;52.190;4.422;2022-08-19T10:51:53;24.41;71.60
68943;DHT22;60852;52.190;4.422;2022-08-19T10:54:37;24.56;70.33
68943;DHT22;60852;52.190;4.422;2022-08-19T10:57:21;24.58;70.11
68943;DHT22;60852;52.190;4.422;2022-08-19T10:59:49;24.76;70.07
68943;DHT22;60852;52.190;4.422;2022-08-19T11:02:15;25.00;69.67
68943;DHT22;60852;52.190;4.422;2022-08-19T11:04:40;25.20;68.52
68943;DHT22;60852;52.190;4.422;2022-08-19T11:07:07;25.26;66.30
68943;DHT22;60852;52.190;4.422;2022-08-19T11:09:39;25.06;66.99
68943;DHT22;60852;52.190;4.422;2022-08-19T11:12:06;24.84;68.53
68943;DHT22;60852;52.190;4.422;2022-08-19T11:14:34;24.77;68.63
68943;DHT22;60852;52.190;4.422;2022-08-19T11:17:00;24.62;69.67
68943;DHT22;60852;52.190;4.422;2022-08-19T11:19:25;24.28;70.88
68943;DHT22;60852;52.190;4.422;2022-08-19T11:21:52;24.15;70.57
68943;DHT22;60852;52.190;4.422;2022-08-19T11:24:25;23.98;72.23
68943;DHT22;60852;52.190;4.422;2022-08-19T11:26:52;23.91;73.22
68943;DHT22;60852;52.190;4.422;2022-08-19T11:29:22;23.85;72.92
68943;DHT22;60852;52.190;4.422;2022-08-19T11:31:51;24.04;73.14
68943;DHT22;60852;52.190;4.422;2022-08-19T11:34:23;24.33;71.45
68943;DHT22;60852;52.190;4.422;2022-08-19T11:36:50;24.62;70.49
68943;DHT22;60852;52.190;4.422;2022-08-19T11:39:19;24.84;70.25
68943;DHT22;60852;52.190;4.422;2022-08-19T11:41:46;24.76;68.75
68943;DHT22;60852;52.190;4.422;2022-08-19T11:44:12;24.77;69.72
68943;DHT22;60852;52.190;4.422;2022-08-19T11:46:40;24.73;68.55
68943;DHT22;60852;52.190;4.422;2022-08-19T11:49:06;24.68;69.28
68943;DHT22;60852;52.190;4.422;2022-08-19T11:51:33;24.91;68.69
68943;DHT22;60852;52.190;4.422;2022-08-19T11:54:00;24.77;68.96
68943;DHT22;60852;52.190;4.422;2022-08-19T11:56:27;24.86;68.69
68943;DHT22;60852;52.190;4.422;2022-08-19T11:58:54;25.03;68.53
68943;DHT22;60852;52.190;4.422;2022-08-19T12:01:22;25.16;68.24
68943;DHT22;60852;52.190;4.422;2022-08-19T12:03:50;25.08;68.14
68943;DHT22;60852;52.190;4.422;2022-08-19T12:06:23;25.18;67.99
68943;DHT22;60852;52.190;4.422;2022-08-19T12:08:55;25.24;67.75
68943;DHT22;60852;52.190;4.422;2022-08-19T12:11:22;25.17;67.82
68943;DHT22;60852;52.190;4.422;2022-08-19T12:13:48;25.02;68.49
68943;DHT22;60852;52.190;4.422;2022-08-19T12:16:20;25.02;69.39
68943;DHT22;60852;52.190;4.422;2022-08-19T12:18:46;25.06;68.96
68943;DHT22;60852;52.190;4.422;2022-08-19T12:21:14;25.07;67.56
68943;DHT22;60852;52.190;4.422;2022-08-19T12:23:41;25.20;67.49
68943;DHT22;60852;52.190;4.422;2022-08-19T12:26:09;25.37;67.34
68943;DHT22;60852;52.190;4.422;2022-08-19T12:28:35;25.14;65.02
68943;DHT22;60852;52.190;4.422;2022-08-19T12:31:00;24.75;67.32
68943;DHT22;60852;52.190;4.422;2022-08-19T12:33:26;24.76;67.49
68943;DHT22;60852;52.190;4.422;2022-08-19T12:35:54;24.79;69.08
68943;DHT22;60852;52.190;4.422;2022-08-19T12:38:19;24.91;66.79
68943;DHT22;60852;52.190;4.422;2022-08-19T12:40:48;25.13;68.13
68943;DHT22;60852;52.190;4.422;2022-08-19T12:43:16;25.27;67.96
68943;DHT22;60852;52.190;4.422;2022-08-19T12:45:42;25.18;67.80
68943;DHT22;60852;52.190;4.422;2022-08-19T12:48:09;25.13;67.86
68943;DHT22;60852;52.190;4.422;2022-08-19T12:50:35;25.13;67.57
68943;DHT22;60852;52.190;4.422;2022-08-19T12:53:00;25.07;67.19
68943;DHT22;60852;52.190;4.422;2022-08-19T12:55:25;25.23;67.60
68943;DHT22;60852;52.190;4.422;2022-08-19T12:57:53;25.44;66.94
68943;DHT22;60852;52.190;4.422;2022-08-19T13:00:20;25.67;66.03
68943;DHT22;60852;52.190;4.422;2022-08-19T13:02:49;25.71;64.59
68943;DHT22;60852;52.190;4.422;2022-08-19T13:05:24;25.76;64.27
68943;DHT22;60852;52.190;4.422;2022-08-19T13:07:52;25.59;65.11
68943;DHT22;60852;52.190;4.422;2022-08-19T13:10:25;25.35;66.34
68943;DHT22;60852;52.190;4.422;2022-08-19T13:12:53;25.33;67.03
68943;DHT22;60852;52.190;4.422;2022-08-19T13:15:21;25.42;67.26
68943;DHT22;60852;52.190;4.422;2022-08-19T13:17:50;25.44;66.54
68943;DHT22;60852;52.190;4.422;2022-08-19T13:20:18;25.49;67.17
68943;DHT22;60852;52.190;4.422;2022-08-19T13:22:45;25.64;67.05
68943;DHT22;60852;52.190;4.422;2022-08-19T13:25:12;25.75;66.51
68943;DHT22;60852;52.190;4.422;2022-08-19T13:27:39;25.76;66.02
68943;DHT22;60852;52.190;4.422;2022-08-19T13:30:08;25.82;66.62
68943;DHT22;60852;52.190;4.422;2022-08-19T13:32:52;26.05;66.05
68943;DHT22;60852;52.190;4.422;2022-08-19T13:35:44;26.07;65.69
68943;DHT22;60852;52.190;4.422;2022-08-19T13:38:10;25.90;65.90
68943;DHT22;60852;52.190;4.422;2022-08-19T13:40:36;25.95;66.80
68943;DHT22;60852;52.190;4.422;2022-08-19T13:43:04;25.92;65.99
68943;DHT22;60852;52.190;4.422;2022-08-19T13:45:32;26.03;66.28
68943;DHT22;60852;52.190;4.422;2022-08-19T13:48:04;25.93;66.36
68943;DHT22;60852;52.190;4.422;2022-08-19T13:50:37;25.96;66.23
68943;DHT22;60852;52.190;4.422;2022-08-19T13:53:03;25.92;66.80
68943;DHT22;60852;52.190;4.422;2022-08-19T13:55:30;25.89;67.35
68943;DHT22;60852;52.190;4.422;2022-08-19T13:57:58;25.85;67.10
68943;DHT22;60852;52.190;4.422;2022-08-19T14:00:26;25.89;66.76
68943;DHT22;60852;52.190;4.422;2022-08-19T14:02:54;25.93;66.69
68943;DHT22;60852;52.190;4.422;2022-08-19T14:05:21;25.89;66.71
68943;DHT22;60852;52.190;4.422;2022-08-19T14:07:47;25.93;66.64
68943;DHT22;60852;52.190;4.422;2022-08-19T14:10:15;26.00;66.63
68943;DHT22;60852;52.190;4.422;2022-08-19T14:12:41;25.88;67.17
68943;DHT22;60852;52.190;4.422;2022-08-19T14:15:09;25.65;68.83
68943;DHT22;60852;52.190;4.422;2022-08-19T14:17:38;25.65;68.93
68943;DHT22;60852;52.190;4.422;2022-08-19T14:20:06;25.76;67.88
68943;DHT22;60852;52.190;4.422;2022-08-19T14:22:39;25.86;67.17
68943;DHT22;60852;52.190;4.422;2022-08-19T14:25:09;25.59;66.95
68943;DHT22;60852;52.190;4.422;2022-08-19T14:27:37;25.39;68.33
68943;DHT22;60852;52.190;4.422;2022-08-19T14:30:06;25.44;68.30
68943;DHT22;60852;52.190;4.422;2022-08-19T14:32:33;25.38;68.05
68943;DHT22;60852;52.190;4.422;2022-08-19T14:34:59;25.27;68.73
68943;DHT22;60852;52.190;4.422;2022-08-19T14:37:25;25.30;68.81
68943;DHT22;60852;52.190;4.422;2022-08-19T14:39:50;25.33;68.52
68943;DHT22;60852;52.190;4.422;2022-08-19T14:42:16;25.48;67.67
68943;DHT22;60852;52.190;4.422;2022-08-19T14:44:42;25.42;67.03
68943;DHT22;60852;52.190;4.422;2022-08-19T14:47:08;25.27;67.18
68943;DHT22;60852;52.190;4.422;2022-08-19T14:49:34;25.16;68.24
68943;DHT22;60852;52.190;4.422;2022-08-19T14:52:00;25.11;66.37
68943;DHT22;60852;52.190;4.422;2022-08-19T14:54:25;24.99;65.99
68943;DHT22;60852;52.190;4.422;2022-08-19T14:56:51;24.97;66.53
68943;DHT22;60852;52.190;4.422;2022-08-19T14:59:16;25.00;67.83
68943;DHT22;60852;52.190;4.422;2022-08-19T15:01:42;25.04;67.49
68943;DHT22;60852;52.190;4.422;2022-08-19T15:04:08;25.00;67.46
68943;DHT22;60852;52.190;4.422;2022-08-19T15:06:33;24.91;68.25
68943;DHT22;60852;52.190;4.422;2022-08-19T15:08:59;24.94;68.47
68943;DHT22;60852;52.190;4.422;2022-08-19T15:11:27;24.84;69.01
68943;DHT22;60852;52.190;4.422;2022-08-19T15:13:54;24.58;70.36
68943;DHT22;60852;52.190;4.422;2022-08-19T15:16:21;24.41;72.09
68943;DHT22;60852;52.190;4.422;2022-08-19T15:18:50;24.28;74.20
68943;DHT22;60852;52.190;4.422;2022-08-19T15:21:16;24.26;75.80
68943;DHT22;60852;52.190;4.422;2022-08-19T15:23:43;24.24;75.71
68943;DHT22;60852;52.190;4.422;2022-08-19T15:26:08;24.24;77.52
68943;DHT22;60852;52.190;4.422;2022-08-19T15:28:35;24.25;75.68
68943;DHT22;60852;52.190;4.422;2022-08-19T15:31:01;24.28;75.90
68943;DHT22;60852;52.190;4.422;2022-08-19T15:33:27;24.35;75.67
68943;DHT22;60852;52.190;4.422;2022-08-19T15:35:52;24.33;75.53
68943;DHT22;60852;52.190;4.422;2022-08-19T15:38:19;24.48;75.01
68943;DHT22;60852;52.190;4.422;2022-08-19T15:40:48;24.48;74.03
68943;DHT22;60852;52.190;4.422;2022-08-19T15:43:15;24.48;74.02
68943;DHT22;60852;52.190;4.422;2022-08-19T15:45:43;24.49;74.27
68943;DHT22;60852;52.190;4.422;2022-08-19T15:48:09;24.56;73.02
68943;DHT22;60852;52.190;4.422;2022-08-19T15:50:35;24.56;71.77